sensor_id;sensor_type;location;lat;lon;timestamp;noise_LAeq;noise_LA_min;noise_LA_max;noise_LA01;noise_LA95
75467;Laerm;64050;50.634;3.062;2024-01-07T00:00:26;44.79;36.86;50.60;;
75467;Laerm;64050;50.634;3.062;2024-01-07T00:02:51;41.35;36.50;51.50;;
75467;Laerm;64050;50.634;3.062;2024-01-07T00:05:16;41.34;36.16;53.51;;
75467;Laerm;64050;50.634;3.062;2024-01-07T00:07:41;39.03;35.65;49.98;;
75467;Laerm;64050;50.634;3.062;2024-01-07T00:10:07;41.77;36.75;50.37;;
75467;Laerm;64050;50.634;3.062;2024-01-07T00:12:33;42.28;37.83;49.73;;
75467;Laerm;64050;50.634;3.062;2024-01-07T00:15:00;42.78;38.94;51.36;;
75467;Laerm;64050;50.634;3.062;2024-01-07T00:17:25;48.58;45.77;52.65;;
75467;Laerm;64050;50.634;3.062;2024-01-07T00:19:50;43.06;36.90;49.72;;
75467;Laerm;64050;50.634;3.062;2024-01-07T00:22:16;40.21;36.59;48.04;;
75467;Laerm;64050;50.634;3.062;2024-01-07T00:24:41;40.81;36.84;50.05;;
75467;Laerm;64050;50.634;3.062;2024-01-07T00:27:06;45.68;37.75;51.37;;
75467;Laerm;64050;50.634;3.062;2024-01-07T00:29:33;48.99;46.00;52.15;;
75467;Laerm;64050;50.634;3.062;2024-01-07T00:32:00;48.38;45.66;52.07;;
75467;Laerm;64050;50.634;3.062;2024-01-07T00:34:25;43.80;36.73;50.92;;
75467;Laerm;64050;50.634;3.062;2024-01-07T00:36:50;46.16;38.73;52.37;;
75467;Laerm;64050;50.634;3.062;2024-01-07T00:39:15;48.52;38.83;52.04;;
75467;Laerm;64050;50.634;3.062;2024-01-07T00:41:40;40.07;35.75;48.38;;
75467;Laerm;64050;50.634;3.062;2024-01-07T00:44:06;38.82;35.49;48.95;;
75467;Laerm;64050;50.634;3.062;2024-01-07T00:46:31;46.53;36.67;56.20;;
75467;Laerm;64050;50.634;3.062;2024-01-07T00:48:56;48.52;39.64;53.48;;
75467;Laerm;64050;50.634;3.062;2024-01-07T00:51:21;41.88;37.87;49.24;;
75467;Laerm;64050;50.634;3.062;2024-01-07T00:53:46;42.12;36.87;52.20;;
75467;Laerm;64050;50.634;3.062;2024-01-07T00:56:12;48.86;45.64;52.29;;
75467;Laerm;64050;50.634;3.062;2024-01-07T00:58:37;43.79;34.97;51.97;;
75467;Laerm;64050;50.634;3.062;2024-01-07T01:01:02;42.03;38.41;54.76;;
75467;Laerm;64050;50.634;3.062;2024-01-07T01:03:27;42.46;38.43;51.63;;
75467;Laerm;64050;50.634;3.062;2024-01-07T01:05:53;48.48;37.23;53.15;;
75467;Laerm;64050;50.634;3.062;2024-01-07T01:08:18;47.36;36.22;52.14;;
75467;Laerm;64050;50.634;3.062;2024-01-07T01:10:43;40.99;34.55;54.01;;
75467;Laerm;64050;50.634;3.062;2024-01-07T01:13:09;37.69;33.76;51.79;;
75467;Laerm;64050;50.634;3.062;2024-01-07T01:15:34;51.00;35.21;71.77;;
75467;Laerm;64050;50.634;3.062;2024-01-07T01:17:59;45.15;35.40;59.23;;
75467;Laerm;64050;50.634;3.062;2024-01-07T01:20:24;42.28;36.75;53.34;;
75467;Laerm;64050;50.634;3.062;2024-01-07T01:22:50;41.63;37.08;50.98;;
75467;Laerm;64050;50.634;3.062;2024-01-07T01:25:15;48.63;37.17;57.79;;
75467;Laerm;64050;50.634;3.062;2024-01-07T01:27:40;47.58;38.91;65.02;;
75467;Laerm;64050;50.634;3.062;2024-01-07T01:30:06;42.04;34.98;49.00;;
75467;Laerm;64050;50.634;3.062;2024-01-07T01:32:31;40.22;34.80;49.48;;
75467;Laerm;64050;50.634;3.062;2024-01-07T01:34:56;47.82;35.05;52.82;;
75467;Laerm;64050;50.634;3.062;2024-01-07T01:37:22;47.95;34.58;58.13;;
75467;Laerm;64050;50.634;3.062;2024-01-07T01:39:47;39.86;34.11;48.21;;
75467;Laerm;64050;50.634;3.062;2024-01-07T01:42:12;42.72;34.04;50.49;;
75467;Laerm;64050;50.634;3.062;2024-01-07T01:44:38;48.43;45.26;51.72;;
75467;Laerm;64050;50.634;3.062;2024-01-07T01:47:03;48.21;35.36;50.63;;
75467;Laerm;64050;50.634;3.062;2024-01-07T01:49:30;41.49;34.71;47.90;;
75467;Laerm;64050;50.634;3.062;2024-01-07T01:51:55;43.63;38.99;52.47;;
75467;Laerm;64050;50.634;3.062;2024-01-07T01:54:21;49.22;46.35;52.50;;
75467;Laerm;64050;50.634;3.062;2024-01-07T01:56:47;48.40;45.20;57.59;;
75467;Laerm;64050;50.634;3.062;2024-01-07T01:59:13;43.26;34.77;53.62;;
75467;Laerm;64050;50.634;3.062;2024-01-07T02:01:39;38.05;34.65;48.16;;
75467;Laerm;64050;50.634;3.062;2024-01-07T02:04:04;48.17;35.17;51.35;;
75467;Laerm;64050;50.634;3.062;2024-01-07T02:06:29;46.22;34.43;52.28;;
75467;Laerm;64050;50.634;3.062;2024-01-07T02:08:55;39.12;34.55;46.57;;
75467;Laerm;64050;50.634;3.062;2024-01-07T02:11:21;38.15;34.96;45.14;;
75467;Laerm;64050;50.634;3.062;2024-01-07T02:13:46;46.46;35.16;52.10;;
75467;Laerm;64050;50.634;3.062;2024-01-07T02:16:12;48.85;45.81;51.24;;
75467;Laerm;64050;50.634;3.062;2024-01-07T02:18:38;46.66;37.85;52.13;;
75467;Laerm;64050;50.634;3.062;2024-01-07T02:21:05;40.04;36.30;47.21;;
75467;Laerm;64050;50.634;3.062;2024-01-07T02:23:31;45.52;36.66;51.25;;
75467;Laerm;64050;50.634;3.062;2024-01-07T02:25:56;46.93;36.09;51.75;;
75467;Laerm;64050;50.634;3.062;2024-01-07T02:28:22;39.14;34.91;51.54;;
75467;Laerm;64050;50.634;3.062;2024-01-07T02:30:47;39.72;34.85;51.07;;
75467;Laerm;64050;50.634;3.062;2024-01-07T02:33:12;46.27;34.94;50.90;;
75467;Laerm;64050;50.634;3.062;2024-01-07T02:35:37;48.54;45.97;52.33;;
75467;Laerm;64050;50.634;3.062;2024-01-07T02:38:03;44.42;37.30;52.21;;
75467;Laerm;64050;50.634;3.062;2024-01-07T02:40:28;41.70;37.17;48.02;;
75467;Laerm;64050;50.634;3.062;2024-01-07T02:42:53;41.76;35.54;52.17;;
75467;Laerm;64050;50.634;3.062;2024-01-07T02:45:18;48.05;35.45;50.96;;
75467;Laerm;64050;50.634;3.062;2024-01-07T02:47:44;39.35;33.95;49.58;;
75467;Laerm;64050;50.634;3.062;2024-01-07T02:50:09;39.06;34.54;48.70;;
75467;Laerm;64050;50.634;3.062;2024-01-07T02:52:34;45.69;36.83;51.43;;
75467;Laerm;64050;50.634;3.062;2024-01-07T02:54:59;49.53;46.04;62.67;;
75467;Laerm;64050;50.634;3.062;2024-01-07T02:57:26;40.69;35.93;56.42;;
75467;Laerm;64050;50.634;3.062;2024-01-07T02:59:51;38.63;34.57;49.58;;
75467;Laerm;64050;50.634;3.062;2024-01-07T03:02:17;41.28;37.90;53.00;;
75467;Laerm;64050;50.634;3.062;2024-01-07T03:04:42;47.20;37.87;51.66;;
75467;Laerm;64050;50.634;3.062;2024-01-07T03:07:08;48.89;36.33;54.71;;
75467;Laerm;64050;50.634;3.062;2024-01-07T03:09:33;38.92;35.26;48.42;;
75467;Laerm;64050;50.634;3.062;2024-01-07T03:11:58;37.77;35.16;46.40;;
75467;Laerm;64050;50.634;3.062;2024-01-07T03:14:23;46.91;37.95;56.44;;
75467;Laerm;64050;50.634;3.062;2024-01-07T03:16:49;46.40;35.66;53.36;;
75467;Laerm;64050;50.634;3.062;2024-01-07T03:19:14;39.62;36.66;55.52;;
75467;Laerm;64050;50.634;3.062;2024-01-07T03:21:39;40.51;36.87;51.36;;
75467;Laerm;64050;50.634;3.062;2024-01-07T03:24:04;45.91;36.67;53.23;;
75467;Laerm;64050;50.634;3.062;2024-01-07T03:26:30;49.40;46.12;52.12;;
75467;Laerm;64050;50.634;3.062;2024-01-07T03:28:58;45.67;38.95;51.96;;
75467;Laerm;64050;50.634;3.062;2024-01-07T03:31:27;40.54;36.90;47.59;;
75467;Laerm;64050;50.634;3.062;2024-01-07T03:33:53;39.84;34.98;52.12;;
75467;Laerm;64050;50.634;3.062;2024-01-07T03:36:18;48.10;35.12;52.32;;
75467;Laerm;64050;50.634;3.062;2024-01-07T03:38:43;38.83;34.52;55.24;;
75467;Laerm;64050;50.634;3.062;2024-01-07T03:41:08;37.88;34.74;45.61;;
75467;Laerm;64050;50.634;3.062;2024-01-07T03:43:34;42.93;35.32;50.99;;
75467;Laerm;64050;50.634;3.062;2024-01-07T03:45:59;48.94;45.33;52.58;;
75467;Laerm;64050;50.634;3.062;2024-01-07T03:48:25;44.21;37.51;51.39;;
75467;Laerm;64050;50.634;3.062;2024-01-07T03:50:51;42.82;37.61;52.78;;
75467;Laerm;64050;50.634;3.062;2024-01-07T03:53:16;42.11;36.85;51.42;;
75467;Laerm;64050;50.634;3.062;2024-01-07T03:55:41;44.85;36.61;51.50;;
75467;Laerm;64050;50.634;3.062;2024-01-07T03:58:07;48.55;37.99;51.76;;
75467;Laerm;64050;50.634;3.062;2024-01-07T04:00:32;40.49;35.12;60.63;;
75467;Laerm;64050;50.634;3.062;2024-01-07T04:02:58;37.30;34.45;46.59;;
75467;Laerm;64050;50.634;3.062;2024-01-07T04:05:23;45.02;34.65;52.25;;
75467;Laerm;64050;50.634;3.062;2024-01-07T04:07:48;47.61;35.31;51.94;;
75467;Laerm;64050;50.634;3.062;2024-01-07T04:10:15;38.03;34.28;51.04;;
75467;Laerm;64050;50.634;3.062;2024-01-07T04:12:41;41.32;37.43;50.58;;
75467;Laerm;64050;50.634;3.062;2024-01-07T04:15:06;41.38;38.23;46.44;;
75467;Laerm;64050;50.634;3.062;2024-01-07T04:17:31;48.56;38.45;52.06;;
75467;Laerm;64050;50.634;3.062;2024-01-07T04:19:56;47.47;37.23;55.26;;
75467;Laerm;64050;50.634;3.062;2024-01-07T04:22:22;40.35;36.88;47.06;;
75467;Laerm;64050;50.634;3.062;2024-01-07T04:24:47;45.36;37.07;64.82;;
75467;Laerm;64050;50.634;3.062;2024-01-07T04:27:12;45.11;37.09;55.12;;
75467;Laerm;64050;50.634;3.062;2024-01-07T04:29:37;46.67;35.84;51.26;;
75467;Laerm;64050;50.634;3.062;2024-01-07T04:32:03;38.80;34.85;51.97;;
75467;Laerm;64050;50.634;3.062;2024-01-07T04:34:28;40.42;35.21;52.05;;
75467;Laerm;64050;50.634;3.062;2024-01-07T04:36:53;46.02;38.01;51.65;;
75467;Laerm;64050;50.634;3.062;2024-01-07T04:39:18;49.29;39.38;54.47;;
75467;Laerm;64050;50.634;3.062;2024-01-07T04:41:44;38.67;35.17;49.93;;
75467;Laerm;64050;50.634;3.062;2024-01-07T04:44:09;41.52;37.50;51.68;;
75467;Laerm;64050;50.634;3.062;2024-01-07T04:46:34;41.07;37.59;47.48;;
75467;Laerm;64050;50.634;3.062;2024-01-07T04:49:00;45.16;37.91;51.52;;
75467;Laerm;64050;50.634;3.062;2024-01-07T04:51:25;49.49;39.12;56.11;;
75467;Laerm;64050;50.634;3.062;2024-01-07T04:53:51;42.06;38.17;55.36;;
75467;Laerm;64050;50.634;3.062;2024-01-07T04:56:16;41.52;37.98;47.43;;
75467;Laerm;64050;50.634;3.062;2024-01-07T04:58:41;43.01;37.99;50.65;;
75467;Laerm;64050;50.634;3.062;2024-01-07T05:01:06;49.04;39.57;56.96;;
75467;Laerm;64050;50.634;3.062;2024-01-07T05:03:32;42.60;37.94;54.08;;
75467;Laerm;64050;50.634;3.062;2024-01-07T05:05:57;42.79;37.97;57.02;;
75467;Laerm;64050;50.634;3.062;2024-01-07T05:08:22;42.36;38.08;48.43;;
75467;Laerm;64050;50.634;3.062;2024-01-07T05:10:47;47.77;38.34;53.67;;
75467;Laerm;64050;50.634;3.062;2024-01-07T05:13:13;48.62;39.05;51.96;;
75467;Laerm;64050;50.634;3.062;2024-01-07T05:15:38;42.33;38.11;51.26;;
75467;Laerm;64050;50.634;3.062;2024-01-07T05:18:06;42.84;38.70;51.95;;
75467;Laerm;64050;50.634;3.062;2024-01-07T05:20:32;46.62;40.88;53.84;;
75467;Laerm;64050;50.634;3.062;2024-01-07T05:22:57;49.19;40.26;55.05;;
75467;Laerm;64050;50.634;3.062;2024-01-07T05:25:22;43.21;39.23;49.93;;
75467;Laerm;64050;50.634;3.062;2024-01-07T05:27:47;42.39;38.94;50.42;;
75467;Laerm;64050;50.634;3.062;2024-01-07T05:30:13;43.15;39.26;51.18;;
75467;Laerm;64050;50.634;3.062;2024-01-07T05:32:38;49.19;46.39;52.02;;
75467;Laerm;64050;50.634;3.062;2024-01-07T05:35:03;45.36;39.19;51.42;;
75467;Laerm;64050;50.634;3.062;2024-01-07T05:37:29;42.20;38.41;48.24;;
75467;Laerm;64050;50.634;3.062;2024-01-07T05:39:54;41.32;36.84;45.32;;
75467;Laerm;64050;50.634;3.062;2024-01-07T05:42:19;39.63;34.63;45.52;;
75467;Laerm;64050;50.634;3.062;2024-01-07T05:44:44;49.91;35.66;56.88;;
75467;Laerm;64050;50.634;3.062;2024-01-07T05:47:10;44.13;39.08;51.05;;
75467;Laerm;64050;50.634;3.062;2024-01-07T05:49:35;44.09;39.21;49.28;;
75467;Laerm;64050;50.634;3.062;2024-01-07T05:52:00;42.90;38.98;48.21;;
75467;Laerm;64050;50.634;3.062;2024-01-07T05:54:25;47.62;37.20;60.26;;
75467;Laerm;64050;50.634;3.062;2024-01-07T05:56:51;48.67;38.84;61.84;;
75467;Laerm;64050;50.634;3.062;2024-01-07T05:59:16;42.79;38.77;48.76;;
75467;Laerm;64050;50.634;3.062;2024-01-07T06:01:41;42.84;39.02;48.74;;
75467;Laerm;64050;50.634;3.062;2024-01-07T06:04:07;47.23;38.87;51.79;;
75467;Laerm;64050;50.634;3.062;2024-01-07T06:06:32;49.41;46.72;51.92;;
75467;Laerm;64050;50.634;3.062;2024-01-07T06:08:58;45.38;36.66;53.53;;
75467;Laerm;64050;50.634;3.062;2024-01-07T06:11:24;42.46;37.68;51.77;;
75467;Laerm;64050;50.634;3.062;2024-01-07T06:13:49;45.33;37.65;51.63;;
75467;Laerm;64050;50.634;3.062;2024-01-07T06:16:14;49.48;46.67;53.82;;
75467;Laerm;64050;50.634;3.062;2024-01-07T06:18:39;48.38;36.07;53.31;;
75467;Laerm;64050;50.634;3.062;2024-01-07T06:21:05;40.37;36.73;45.80;;
75467;Laerm;64050;50.634;3.062;2024-01-07T06:23:32;42.33;37.64;46.64;;
75467;Laerm;64050;50.634;3.062;2024-01-07T06:25:57;42.50;39.10;46.81;;
75467;Laerm;64050;50.634;3.062;2024-01-07T06:28:22;41.85;37.69;51.46;;
75467;Laerm;64050;50.634;3.062;2024-01-07T06:30:47;40.56;35.65;47.80;;
75467;Laerm;64050;50.634;3.062;2024-01-07T06:33:12;44.92;35.23;51.44;;
75467;Laerm;64050;50.634;3.062;2024-01-07T06:35:38;48.34;35.06;53.66;;
75467;Laerm;64050;50.634;3.062;2024-01-07T06:38:03;37.13;34.64;42.23;;
75467;Laerm;64050;50.634;3.062;2024-01-07T06:40:29;42.77;34.01;57.89;;
75467;Laerm;64050;50.634;3.062;2024-01-07T06:42:54;41.24;34.95;50.80;;
75467;Laerm;64050;50.634;3.062;2024-01-07T06:45:19;42.12;34.88;56.66;;
75467;Laerm;64050;50.634;3.062;2024-01-07T06:47:45;44.30;38.62;56.59;;
75467;Laerm;64050;50.634;3.062;2024-01-07T06:50:11;42.69;38.35;49.86;;
75467;Laerm;64050;50.634;3.062;2024-01-07T06:52:36;48.10;39.93;52.21;;
75467;Laerm;64050;50.634;3.062;2024-01-07T06:55:01;43.87;39.24;51.36;;
75467;Laerm;64050;50.634;3.062;2024-01-07T06:57:26;46.57;38.71;51.02;;
75467;Laerm;64050;50.634;3.062;2024-01-07T06:59:52;48.27;35.20;51.87;;
75467;Laerm;64050;50.634;3.062;2024-01-07T07:02:17;38.95;35.34;46.25;;
75467;Laerm;64050;50.634;3.062;2024-01-07T07:04:42;40.36;35.14;60.11;;
75467;Laerm;64050;50.634;3.062;2024-01-07T07:07:07;49.19;35.95;62.46;;
75467;Laerm;64050;50.634;3.062;2024-01-07T07:09:33;48.31;35.61;52.93;;
75467;Laerm;64050;50.634;3.062;2024-01-07T07:11:59;40.85;35.21;53.46;;
75467;Laerm;64050;50.634;3.062;2024-01-07T07:14:24;46.59;35.10;64.23;;
75467;Laerm;64050;50.634;3.062;2024-01-07T07:16:49;46.88;34.99;51.02;;
75467;Laerm;64050;50.634;3.062;2024-01-07T07:19:15;45.64;37.96;54.79;;
75467;Laerm;64050;50.634;3.062;2024-01-07T07:21:41;42.63;38.96;46.39;;
75467;Laerm;64050;50.634;3.062;2024-01-07T07:24:07;49.04;39.20;67.57;;
75467;Laerm;64050;50.634;3.062;2024-01-07T07:26:32;48.59;38.53;53.05;;
75467;Laerm;64050;50.634;3.062;2024-01-07T07:28:58;46.34;35.67;54.89;;
75467;Laerm;64050;50.634;3.062;2024-01-07T07:31:25;37.93;34.77;46.37;;
75467;Laerm;64050;50.634;3.062;2024-01-07T07:33:50;37.72;34.90;57.37;;
75467;Laerm;64050;50.634;3.062;2024-01-07T07:36:15;43.52;33.97;65.31;;
75467;Laerm;64050;50.634;3.062;2024-01-07T07:38:40;47.75;36.70;51.51;;
75467;Laerm;64050;50.634;3.062;2024-01-07T07:41:06;41.28;36.34;47.88;;
75467;Laerm;64050;50.634;3.062;2024-01-07T07:43:32;41.70;37.92;45.88;;
75467;Laerm;64050;50.634;3.062;2024-01-07T07:45:58;47.16;38.19;51.81;;
75467;Laerm;64050;50.634;3.062;2024-01-07T07:48:23;48.36;37.96;51.33;;
75467;Laerm;64050;50.634;3.062;2024-01-07T07:50:49;41.77;37.40;50.10;;
75467;Laerm;64050;50.634;3.062;2024-01-07T07:53:14;49.41;41.06;63.26;;
75467;Laerm;64050;50.634;3.062;2024-01-07T07:55:39;49.12;39.83;59.81;;
75467;Laerm;64050;50.634;3.062;2024-01-07T07:58:05;48.39;39.23;66.46;;
75467;Laerm;64050;50.634;3.062;2024-01-07T08:00:30;49.11;38.63;54.06;;
75467;Laerm;64050;50.634;3.062;2024-01-07T08:02:55;41.82;38.19;51.03;;
75467;Laerm;64050;50.634;3.062;2024-01-07T08:05:21;42.41;38.21;57.73;;
75467;Laerm;64050;50.634;3.062;2024-01-07T08:07:46;45.50;38.35;57.40;;
75467;Laerm;64050;50.634;3.062;2024-01-07T08:10:11;46.11;35.95;56.60;;
75467;Laerm;64050;50.634;3.062;2024-01-07T08:12:36;40.51;36.08;49.36;;
75467;Laerm;64050;50.634;3.062;2024-01-07T08:15:02;40.49;36.63;50.06;;
75467;Laerm;64050;50.634;3.062;2024-01-07T08:17:27;45.48;37.96;52.91;;
75467;Laerm;64050;50.634;3.062;2024-01-07T08:19:53;45.76;38.39;63.33;;
75467;Laerm;64050;50.634;3.062;2024-01-07T08:22:18;42.96;38.12;49.60;;
75467;Laerm;64050;50.634;3.062;2024-01-07T08:24:44;43.63;39.88;50.88;;
75467;Laerm;64050;50.634;3.062;2024-01-07T08:27:09;46.00;40.52;54.33;;
75467;Laerm;64050;50.634;3.062;2024-01-07T08:29:34;47.59;37.63;53.85;;
75467;Laerm;64050;50.634;3.062;2024-01-07T08:32:00;44.71;36.08;68.08;;
75467;Laerm;64050;50.634;3.062;2024-01-07T08:34:26;48.01;35.62;62.36;;
75467;Laerm;64050;50.634;3.062;2024-01-07T08:36:51;46.26;36.30;55.14;;
75467;Laerm;64050;50.634;3.062;2024-01-07T08:39:18;45.90;35.82;55.29;;
75467;Laerm;64050;50.634;3.062;2024-01-07T08:41:44;40.65;35.31;53.34;;
75467;Laerm;64050;50.634;3.062;2024-01-07T08:44:10;43.54;37.52;62.41;;
75467;Laerm;64050;50.634;3.062;2024-01-07T08:46:35;44.59;38.68;55.82;;
75467;Laerm;64050;50.634;3.062;2024-01-07T08:49:01;47.58;39.72;56.03;;
75467;Laerm;64050;50.634;3.062;2024-01-07T08:51:26;42.44;38.14;51.91;;
75467;Laerm;64050;50.634;3.062;2024-01-07T08:53:51;46.63;38.06;61.92;;
75467;Laerm;64050;50.634;3.062;2024-01-07T08:56:17;47.37;39.32;66.46;;
75467;Laerm;64050;50.634;3.062;2024-01-07T08:58:42;46.73;38.22;56.90;;
75467;Laerm;64050;50.634;3.062;2024-01-07T09:01:07;43.99;36.62;60.45;;
75467;Laerm;64050;50.634;3.062;2024-01-07T09:03:33;43.05;36.97;55.90;;
75467;Laerm;64050;50.634;3.062;2024-01-07T09:05:58;47.95;40.21;53.70;;
75467;Laerm;64050;50.634;3.062;2024-01-07T09:08:23;44.60;39.31;61.74;;
75467;Laerm;64050;50.634;3.062;2024-01-07T09:10:50;48.33;39.30;59.90;;
75467;Laerm;64050;50.634;3.062;2024-01-07T09:13:16;45.93;36.72;53.01;;
75467;Laerm;64050;50.634;3.062;2024-01-07T09:15:41;41.00;36.40;56.33;;
75467;Laerm;64050;50.634;3.062;2024-01-07T09:18:06;47.76;38.26;75.79;;
75467;Laerm;64050;50.634;3.062;2024-01-07T09:20:32;47.99;39.67;63.28;;
75467;Laerm;64050;50.634;3.062;2024-01-07T09:22:57;50.49;42.62;58.98;;
75467;Laerm;64050;50.634;3.062;2024-01-07T09:25:22;48.96;41.60;60.88;;
75467;Laerm;64050;50.634;3.062;2024-01-07T09:27:47;46.21;40.28;64.89;;
75467;Laerm;64050;50.634;3.062;2024-01-07T09:30:13;47.67;40.60;53.12;;
75467;Laerm;64050;50.634;3.062;2024-01-07T09:32:42;48.12;39.76;55.95;;
75467;Laerm;64050;50.634;3.062;2024-01-07T09:35:07;46.00;39.32;68.10;;
75467;Laerm;64050;50.634;3.062;2024-01-07T09:37:33;46.52;38.22;67.05;;
75467;Laerm;64050;50.634;3.062;2024-01-07T09:39:58;50.62;38.39;66.94;;
75467;Laerm;64050;50.634;3.062;2024-01-07T09:42:24;49.49;37.93;68.14;;
75467;Laerm;64050;50.634;3.062;2024-01-07T09:44:50;50.26;38.27;74.32;;
75467;Laerm;64050;50.634;3.062;2024-01-07T09:47:15;43.72;39.41;55.90;;
75467;Laerm;64050;50.634;3.062;2024-01-07T09:49:41;47.60;41.09;56.91;;
75467;Laerm;64050;50.634;3.062;2024-01-07T09:52:08;48.72;41.08;62.43;;
75467;Laerm;64050;50.634;3.062;2024-01-07T09:54:35;47.19;41.20;56.79;;
75467;Laerm;64050;50.634;3.062;2024-01-07T09:57:01;49.86;42.19;58.97;;
75467;Laerm;64050;50.634;3.062;2024-01-07T09:59:29;55.96;51.78;69.67;;
75467;Laerm;64050;50.634;3.062;2024-01-07T10:01:55;55.70;51.72;60.51;;
75467;Laerm;64050;50.634;3.062;2024-01-07T10:04:21;55.58;51.72;60.36;;
75467;Laerm;64050;50.634;3.062;2024-01-07T10:06:46;55.56;51.25;60.11;;
75467;Laerm;64050;50.634;3.062;2024-01-07T10:09:13;55.56;50.91;60.22;;
75467;Laerm;64050;50.634;3.062;2024-01-07T10:11:39;55.38;51.57;60.45;;
75467;Laerm;64050;50.634;3.062;2024-01-07T10:14:04;55.42;51.52;60.54;;
75467;Laerm;64050;50.634;3.062;2024-01-07T10:16:29;55.49;51.09;60.04;;
75467;Laerm;64050;50.634;3.062;2024-01-07T10:18:54;55.32;51.38;59.71;;
75467;Laerm;64050;50.634;3.062;2024-01-07T10:21:20;55.37;51.41;65.54;;
75467;Laerm;64050;50.634;3.062;2024-01-07T10:23:45;55.28;51.50;61.20;;
75467;Laerm;64050;50.634;3.062;2024-01-07T10:26:10;55.48;51.42;68.47;;
75467;Laerm;64050;50.634;3.062;2024-01-07T10:28:36;55.35;51.59;63.31;;
75467;Laerm;64050;50.634;3.062;2024-01-07T10:31:02;56.96;51.44;84.02;;
75467;Laerm;64050;50.634;3.062;2024-01-07T10:33:31;55.80;51.11;60.81;;
75467;Laerm;64050;50.634;3.062;2024-01-07T10:36:01;55.39;51.05;60.65;;
75467;Laerm;64050;50.634;3.062;2024-01-07T10:38:29;55.35;51.60;60.77;;
75467;Laerm;64050;50.634;3.062;2024-01-07T10:40:54;55.25;50.31;60.14;;
75467;Laerm;64050;50.634;3.062;2024-01-07T10:43:20;55.13;50.82;59.83;;
75467;Laerm;64050;50.634;3.062;2024-01-07T10:45:47;55.16;51.57;59.39;;
75467;Laerm;64050;50.634;3.062;2024-01-07T10:48:13;55.18;50.88;59.92;;
75467;Laerm;64050;50.634;3.062;2024-01-07T10:50:42;55.22;50.97;60.06;;
75467;Laerm;64050;50.634;3.062;2024-01-07T10:53:10;55.21;51.02;59.95;;
75467;Laerm;64050;50.634;3.062;2024-01-07T10:55:39;55.29;51.20;60.71;;
75467;Laerm;64050;50.634;3.062;2024-01-07T10:58:07;55.26;51.35;62.15;;
75467;Laerm;64050;50.634;3.062;2024-01-07T11:00:32;54.95;50.85;60.23;;
75467;Laerm;64050;50.634;3.062;2024-01-07T11:05:40;55.04;51.47;59.56;;
75467;Laerm;64050;50.634;3.062;2024-01-07T11:08:11;55.46;51.58;59.80;;
75467;Laerm;64050;50.634;3.062;2024-01-07T11:10:48;55.08;50.91;59.34;;
75467;Laerm;64050;50.634;3.062;2024-01-07T11:16:00;55.24;51.07;59.58;;
75467;Laerm;64050;50.634;3.062;2024-01-07T11:18:26;55.22;51.12;60.16;;
75467;Laerm;64050;50.634;3.062;2024-01-07T11:20:57;55.15;51.23;59.27;;
75467;Laerm;64050;50.634;3.062;2024-01-07T11:25:52;55.29;51.46;59.97;;
75467;Laerm;64050;50.634;3.062;2024-01-07T11:28:17;55.33;50.76;60.54;;
75467;Laerm;64050;50.634;3.062;2024-01-07T11:30:44;55.25;51.13;59.70;;
75467;Laerm;64050;50.634;3.062;2024-01-07T11:33:13;55.30;50.97;60.03;;
75467;Laerm;64050;50.634;3.062;2024-01-07T11:35:54;55.30;51.10;60.31;;
75467;Laerm;64050;50.634;3.062;2024-01-07T11:38:21;55.23;51.51;61.02;;
75467;Laerm;64050;50.634;3.062;2024-01-07T11:40:46;55.07;51.09;59.44;;
75467;Laerm;64050;50.634;3.062;2024-01-07T11:43:12;55.00;50.79;60.37;;
75467;Laerm;64050;50.634;3.062;2024-01-07T11:45:37;55.11;50.96;60.18;;
75467;Laerm;64050;50.634;3.062;2024-01-07T11:48:02;57.50;51.34;73.35;;
75467;Laerm;64050;50.634;3.062;2024-01-07T11:50:29;55.31;51.39;62.82;;
75467;Laerm;64050;50.634;3.062;2024-01-07T11:52:55;55.15;51.03;60.41;;
75467;Laerm;64050;50.634;3.062;2024-01-07T11:55:20;55.23;51.51;61.39;;
75467;Laerm;64050;50.634;3.062;2024-01-07T11:57:46;55.18;50.55;63.08;;
75467;Laerm;64050;50.634;3.062;2024-01-07T12:00:11;55.08;51.26;59.95;;
75467;Laerm;64050;50.634;3.062;2024-01-07T12:02:37;55.10;50.84;60.75;;
75467;Laerm;64050;50.634;3.062;2024-01-07T12:05:02;55.18;51.07;60.51;;
75467;Laerm;64050;50.634;3.062;2024-01-07T12:07:27;55.32;51.43;60.09;;
75467;Laerm;64050;50.634;3.062;2024-01-07T12:09:56;55.50;51.10;63.89;;
75467;Laerm;64050;50.634;3.062;2024-01-07T12:12:23;55.40;51.74;62.12;;
75467;Laerm;64050;50.634;3.062;2024-01-07T12:14:48;55.90;51.66;68.20;;
75467;Laerm;64050;50.634;3.062;2024-01-07T12:17:16;55.25;51.64;59.68;;
75467;Laerm;64050;50.634;3.062;2024-01-07T12:19:41;55.31;51.31;60.67;;
75467;Laerm;64050;50.634;3.062;2024-01-07T12:22:06;55.78;51.49;76.34;;
75467;Laerm;64050;50.634;3.062;2024-01-07T12:24:32;55.36;51.34;65.41;;
75467;Laerm;64050;50.634;3.062;2024-01-07T12:27:03;55.25;51.45;61.13;;
75467;Laerm;64050;50.634;3.062;2024-01-07T12:29:28;55.01;51.02;60.66;;
75467;Laerm;64050;50.634;3.062;2024-01-07T12:31:53;55.51;51.39;73.35;;
75467;Laerm;64050;50.634;3.062;2024-01-07T12:34:20;55.17;51.24;60.82;;
75467;Laerm;64050;50.634;3.062;2024-01-07T12:36:48;55.76;51.62;67.92;;
75467;Laerm;64050;50.634;3.062;2024-01-07T12:39:13;55.23;51.47;64.20;;
75467;Laerm;64050;50.634;3.062;2024-01-07T12:41:38;55.19;51.49;59.90;;
75467;Laerm;64050;50.634;3.062;2024-01-07T12:44:04;55.95;51.24;65.95;;
75467;Laerm;64050;50.634;3.062;2024-01-07T12:46:29;55.16;50.96;59.74;;
75467;Laerm;64050;50.634;3.062;2024-01-07T12:48:56;55.13;51.43;60.37;;
75467;Laerm;64050;50.634;3.062;2024-01-07T12:51:21;55.43;51.27;61.84;;
75467;Laerm;64050;50.634;3.062;2024-01-07T12:53:47;55.14;51.11;59.44;;
75467;Laerm;64050;50.634;3.062;2024-01-07T12:56:12;55.25;51.56;59.63;;
75467;Laerm;64050;50.634;3.062;2024-01-07T12:58:38;55.36;50.91;61.00;;
75467;Laerm;64050;50.634;3.062;2024-01-07T13:01:03;55.87;51.82;63.21;;
75467;Laerm;64050;50.634;3.062;2024-01-07T13:03:29;55.35;51.38;60.32;;
75467;Laerm;64050;50.634;3.062;2024-01-07T13:05:54;55.15;51.16;60.36;;
75467;Laerm;64050;50.634;3.062;2024-01-07T13:08:20;55.21;51.42;64.14;;
75467;Laerm;64050;50.634;3.062;2024-01-07T13:10:47;55.25;51.31;59.49;;
75467;Laerm;64050;50.634;3.062;2024-01-07T13:13:13;55.43;50.84;60.34;;
75467;Laerm;64050;50.634;3.062;2024-01-07T13:15:38;55.35;50.87;64.95;;
75467;Laerm;64050;50.634;3.062;2024-01-07T13:18:04;55.51;51.03;69.71;;
75467;Laerm;64050;50.634;3.062;2024-01-07T13:20:29;55.36;51.67;61.32;;
75467;Laerm;64050;50.634;3.062;2024-01-07T13:22:54;55.38;51.76;60.73;;
75467;Laerm;64050;50.634;3.062;2024-01-07T13:25:20;55.58;51.36;61.20;;
75467;Laerm;64050;50.634;3.062;2024-01-07T13:27:45;55.26;51.65;61.78;;
75467;Laerm;64050;50.634;3.062;2024-01-07T13:30:11;55.13;51.55;59.97;;
75467;Laerm;64050;50.634;3.062;2024-01-07T13:32:36;55.15;51.15;59.47;;
75467;Laerm;64050;50.634;3.062;2024-01-07T13:35:04;55.16;51.07;59.51;;
75467;Laerm;64050;50.634;3.062;2024-01-07T13:37:30;55.33;51.18;59.88;;
75467;Laerm;64050;50.634;3.062;2024-01-07T13:39:58;55.30;51.25;59.55;;
75467;Laerm;64050;50.634;3.062;2024-01-07T13:42:23;55.98;51.20;69.77;;